Time;durP1;ratioP1;P1;durP2;ratioP2;P2;SDS_P1;SDS_P2;PMS_P1;PMS_P2;Temp;Humidity;BMP_temperature;BMP_pressure;BME280_temperature;BME280_humidity;BME280_pressure;Samples;Min_cycle;Max_cycle;Signal;HPM_P1;HPM_P2
2022/01/31 00:00:11;;;;;;;21.50;5.80;;;;;;;2.55;85.06;98591.14;105297;1268;61271;-76
2022/01/31 00:02:58;;;;;;;20.90;4.70;;;;;;;2.58;84.45;98588.94;105284;1268;63471;-78
2022/01/31 00:05:24;;;;;;;15.90;4.50;;;;;;;2.58;84.44;98593.13;105294;1267;74610;-76
2022/01/31 00:07:51;;;;;;;16.60;3.90;;;;;;;2.58;84.36;98594.38;105301;1268;61173;-76
2022/01/31 00:10:26;;;;;;;14.70;4.10;;;;;;;2.57;84.31;98589.13;104993;1269;61293;-77
2022/01/31 00:13:03;;;;;;;16.20;3.90;;;;;;;2.56;84.37;98590.61;105271;1268;61323;-77
2022/01/31 00:15:30;;;;;;;14.50;4.50;;;;;;;2.54;84.14;98593.27;105287;1268;61357;-77
2022/01/31 00:17:57;;;;;;;17.70;5.00;;;;;;;2.53;84.43;98593.88;105276;1268;75152;-77
2022/01/31 00:20:24;;;;;;;16.50;4.80;;;;;;;2.51;84.81;98596.41;105257;1268;68746;-77
2022/01/31 00:22:50;;;;;;;15.30;4.00;;;;;;;2.47;85.04;98597.77;105206;1268;61261;-76
2022/01/31 00:25:17;;;;;;;17.00;4.40;;;;;;;2.45;85.08;98595.08;105275;1268;61250;-76
2022/01/31 00:27:44;;;;;;;10.70;3.10;;;;;;;2.43;84.92;98597.45;105274;1268;61324;-77
2022/01/31 00:30:11;;;;;;;18.40;5.20;;;;;;;2.40;84.94;98602.09;105253;1268;75357;-77
2022/01/31 00:32:37;;;;;;;16.30;4.70;;;;;;;2.38;84.90;98604.47;105243;1268;70381;-76
2022/01/31 00:35:05;;;;;;;19.80;3.60;;;;;;;2.34;84.92;98596.06;105267;1268;73819;-77
2022/01/31 00:37:32;;;;;;;14.80;4.10;;;;;;;2.30;84.35;98602.88;105327;1268;61282;-76
2022/01/31 00:39:59;;;;;;;11.60;3.30;;;;;;;2.30;84.59;98595.68;105047;1268;61282;-78
2022/01/31 00:42:27;;;;;;;14.90;3.00;;;;;;;2.29;84.42;98598.52;105283;1268;76221;-78
2022/01/31 00:44:57;;;;;;;17.80;4.50;;;;;;;2.28;84.72;98599.08;105266;1268;69222;-76
2022/01/31 00:47:26;;;;;;;23.60;3.60;;;;;;;2.28;84.10;98604.89;105216;1268;73409;-78
2022/01/31 00:50:04;;;;;;;17.60;3.20;;;;;;;2.28;84.23;98597.17;104994;1269;61406;-78
2022/01/31 00:52:31;;;;;;;18.00;4.50;;;;;;;2.26;84.46;98596.53;105287;1268;61821;-77
2022/01/31 00:54:58;;;;;;;14.50;3.70;;;;;;;2.24;84.10;98594.52;105253;1268;76136;-77
2022/01/31 00:57:24;;;;;;;14.60;3.40;;;;;;;2.24;83.68;98598.39;105208;1268;67942;-76
2022/01/31 00:59:51;;;;;;;23.10;5.30;;;;;;;2.23;83.99;98592.27;105266;1268;61253;-77
2022/01/31 01:02:19;;;;;;;12.60;3.80;;;;;;;2.22;83.54;98597.05;105261;1268;61355;-77
2022/01/31 01:04:46;;;;;;;15.70;3.70;;;;;;;2.22;83.82;98594.95;105324;1268;61744;-76
2022/01/31 01:07:14;;;;;;;13.90;3.90;;;;;;;2.21;83.23;98591.48;105255;1266;76271;-78
2022/01/31 01:09:44;;;;;;;16.70;3.50;;;;;;;2.21;83.50;98591.64;105276;1268;68823;-78
2022/01/31 01:12:12;;;;;;;12.50;3.10;;;;;;;2.18;83.49;98588.95;105067;1268;295927;-78
2022/01/31 01:14:40;;;;;;;8.50;2.80;;;;;;;2.15;83.23;98588.72;105242;1267;61304;-76
2022/01/31 01:17:07;;;;;;;15.90;3.10;;;;;;;2.14;82.91;98581.77;105013;1269;61280;-77
2022/01/31 01:19:34;;;;;;;18.10;3.70;;;;;;;2.13;82.69;98578.84;105287;1268;76534;-76
2022/01/31 01:22:01;;;;;;;14.50;3.70;;;;;;;2.09;83.19;98572.15;105261;1268;61582;-78
2022/01/31 01:24:27;;;;;;;13.40;3.80;;;;;;;2.01;83.41;98569.63;104998;1268;73145;-76
2022/01/31 01:26:54;;;;;;;14.50;3.90;;;;;;;1.97;82.99;98564.05;105280;1268;61340;-77
2022/01/31 01:29:21;;;;;;;9.90;3.30;;;;;;;1.96;82.96;98561.41;105227;1268;61332;-77
2022/01/31 01:31:49;;;;;;;18.90;3.80;;;;;;;1.96;82.72;98560.72;105261;1268;75279;-76
2022/01/31 01:34:16;;;;;;;11.20;3.50;;;;;;;1.94;82.72;98564.83;105314;1268;69148;-77
2022/01/31 01:36:45;;;;;;;14.00;3.10;;;;;;;1.95;82.37;98565.13;105253;1268;73177;-77
2022/01/31 01:39:12;;;;;;;12.40;3.20;;;;;;;1.95;82.74;98563.40;105219;1268;61376;-77
2022/01/31 01:41:39;;;;;;;12.40;3.20;;;;;;;1.94;82.47;98565.52;105022;1269;61297;-77
2022/01/31 01:44:05;;;;;;;18.70;4.90;;;;;;;1.93;82.69;98559.98;105304;1268;74260;-77
2022/01/31 01:46:32;;;;;;;17.40;3.80;;;;;;;1.90;83.01;98552.40;105268;1268;70993;-76
2022/01/31 01:48:58;;;;;;;11.80;3.70;;;;;;;1.87;83.23;98549.72;105211;1268;61341;-76
2022/01/31 01:51:25;;;;;;;10.60;3.20;;;;;;;1.82;83.20;98544.80;105245;1268;61315;-76
2022/01/31 01:53:52;;;;;;;17.40;3.90;;;;;;;1.81;82.39;98540.81;105299;1268;61164;-76
2022/01/31 01:56:19;;;;;;;13.30;3.20;;;;;;;1.81;82.80;98533.47;105259;1268;61343;-76
2022/01/31 01:58:48;;;;;;;12.60;3.30;;;;;;;1.80;82.60;98530.73;105244;1268;70139;-76
2022/01/31 02:01:14;;;;;;;15.60;3.10;;;;;;;1.79;82.29;98523.03;105243;1268;73149;-76
2022/01/31 02:03:42;;;;;;;10.60;2.30;;;;;;;1.79;82.24;98519.89;105282;1268;61279;-76
2022/01/31 02:06:09;;;;;;;15.50;3.40;;;;;;;1.79;82.06;98515.88;105382;1268;61370;-76
2022/01/31 02:08:43;;;;;;;11.10;2.90;;;;;;;1.78;82.52;98509.95;105263;1268;76204;-77
2022/01/31 02:11:12;;;;;;;8.60;2.70;;;;;;;1.75;82.78;98512.86;105259;1268;70337;-76
2022/01/31 02:13:39;;;;;;;12.30;3.30;;;;;;;1.73;82.67;98514.36;105332;1268;73422;-77
2022/01/31 02:16:08;;;;;;;10.00;2.90;;;;;;;1.72;82.29;98509.31;105283;1268;61301;-76
2022/01/31 02:18:37;;;;;;;14.80;3.00;;;;;;;1.72;82.55;98511.73;105451;1268;61159;-77
2022/01/31 02:21:04;;;;;;;11.80;2.80;;;;;;;1.71;82.63;98514.93;105259;1268;75120;-76
2022/01/31 02:23:32;;;;;;;10.00;3.00;;;;;;;1.71;82.48;98513.71;105021;1268;70693;-76
2022/01/31 02:26:03;;;;;;;15.60;3.90;;;;;;;1.71;82.15;98512.13;105291;1268;73095;-75
2022/01/31 02:28:33;;;;;;;14.60;3.50;;;;;;;1.71;82.32;98509.34;105343;1268;61403;-78
2022/01/31 02:31:00;;;;;;;15.00;3.30;;;;;;;1.70;82.41;98504.14;105367;1268;61293;-76
2022/01/31 02:33:28;;;;;;;11.20;2.30;;;;;;;1.69;82.30;98500.14;105302;1268;74599;-76
2022/01/31 02:35:57;;;;;;;13.70;3.00;;;;;;;1.69;81.85;98491.39;105277;1268;69541;-77
2022/01/31 02:38:25;;;;;;;9.80;2.30;;;;;;;1.70;81.47;98478.90;105384;1268;74310;-76
2022/01/31 02:40:52;;;;;;;10.40;3.30;;;;;;;1.71;81.95;98476.08;105344;1268;61293;-76
2022/01/31 02:43:27;;;;;;;14.40;2.60;;;;;;;1.70;81.77;98470.86;105320;1268;61277;-76
2022/01/31 02:45:54;;;;;;;11.30;2.30;;;;;;;1.68;81.96;98468.30;105346;1268;75520;-76
2022/01/31 02:48:23;;;;;;;11.50;2.70;;;;;;;1.67;81.48;98468.15;105357;1268;69114;-78
2022/01/31 02:50:51;;;;;;;16.50;3.10;;;;;;;1.69;81.20;98463.56;105473;1268;73126;-76
2022/01/31 02:53:26;;;;;;;10.80;2.70;;;;;;;1.68;81.80;98466.73;105480;1268;61278;-76
2022/01/31 02:55:56;;;;;;;12.00;3.00;;;;;;;1.67;81.63;98462.76;105632;1268;61259;-76
2022/01/31 02:58:25;;;;;;;7.80;2.40;;;;;;;1.66;81.95;98459.10;105749;1268;75195;-76
2022/01/31 03:00:53;;;;;;;13.40;3.20;;;;;;;1.66;81.65;98455.23;105919;1268;69144;-77
2022/01/31 03:03:20;;;;;;;11.90;2.60;;;;;;;1.66;81.56;98443.34;105962;1268;74204;-76
2022/01/31 03:05:47;;;;;;;15.20;3.10;;;;;;;1.66;81.52;98445.43;106672;1268;61269;-75
2022/01/31 03:08:14;;;;;;;9.90;2.60;;;;;;;1.66;81.62;98448.41;107438;1268;61162;-76
2022/01/31 03:10:40;;;;;;;11.70;3.00;;;;;;;1.66;81.61;98442.66;107745;1268;74209;-77
2022/01/31 03:13:07;;;;;;;14.10;2.80;;;;;;;1.64;81.21;98438.69;107316;1268;66314;-76
2022/01/31 03:15:34;;;;;;;13.50;2.90;;;;;;;1.64;80.94;98429.60;106324;1268;74180;-75
2022/01/31 03:18:00;;;;;;;11.00;2.40;;;;;;;1.62;81.30;98433.69;105329;1268;61227;-76
2022/01/31 03:20:27;;;;;;;15.70;3.40;;;;;;;1.59;81.44;98431.73;105345;1268;61705;-77
2022/01/31 03:22:54;;;;;;;13.10;4.10;;;;;;;1.54;81.21;98422.98;105142;1268;76189;-76
2022/01/31 03:25:20;;;;;;;14.10;3.00;;;;;;;1.52;81.03;98418.31;105317;1268;69663;-77
2022/01/31 03:27:48;;;;;;;9.60;2.80;;;;;;;1.50;81.65;98415.95;104524;1268;1003794;-77
2022/01/31 03:30:21;;;;;;;11.30;3.20;;;;;;;1.45;81.85;98414.08;105256;1268;61492;-76
2022/01/31 03:32:48;;;;;;;16.90;3.50;;;;;;;1.40;81.81;98412.86;105260;1268;61275;-78
2022/01/31 03:35:16;;;;;;;20.10;3.90;;;;;;;1.36;82.05;98413.52;105291;1268;74984;-76
2022/01/31 03:37:43;;;;;;;13.00;3.10;;;;;;;1.32;82.11;98412.30;105278;1268;69287;-78
2022/01/31 03:40:10;;;;;;;13.30;3.10;;;;;;;1.30;82.02;98409.55;105247;1268;73214;-76
2022/01/31 03:42:38;;;;;;;13.00;3.90;;;;;;;1.28;82.16;98415.59;105318;1268;61266;-76
2022/01/31 03:45:08;;;;;;;14.30;2.80;;;;;;;1.27;82.11;98410.05;105090;1268;61352;-76
2022/01/31 03:47:42;;;;;;;;;;;;;;;1.25;82.05;98401.55;105270;1268;74282;-76
2022/01/31 03:50:11;;;;;;;8.50;2.60;;;;;;;1.23;82.11;98394.95;105288;1268;68635;-77
2022/01/31 03:52:38;;;;;;;13.30;4.20;;;;;;;1.21;82.20;98391.52;105368;1268;73391;-76
2022/01/31 03:55:05;;;;;;;10.40;2.60;;;;;;;1.19;82.14;98385.86;105425;1267;61319;-78
2022/01/31 03:57:33;;;;;;;12.70;2.90;;;;;;;1.20;82.37;98381.98;105284;1268;61268;-76
2022/01/31 04:00:01;;;;;;;12.90;2.90;;;;;;;1.18;82.31;98381.67;105276;1268;73594;-78
2022/01/31 04:02:28;;;;;;;15.30;3.90;;;;;;;1.17;82.61;98369.83;105301;1268;70458;-78
2022/01/31 04:04:54;;;;;;;14.60;3.00;;;;;;;1.15;82.77;98371.66;105009;1268;73595;-76
2022/01/31 04:07:21;;;;;;;11.60;2.70;;;;;;;1.11;83.01;98365.49;105262;1268;61335;-76
2022/01/31 04:09:47;;;;;;;14.20;3.10;;;;;;;1.09;82.93;98368.56;105034;1268;61377;-78
2022/01/31 04:12:14;;;;;;;17.30;3.20;;;;;;;1.06;83.03;98364.98;105292;1268;61246;-77
2022/01/31 04:14:40;;;;;;;10.70;2.50;;;;;;;1.03;83.07;98360.05;105274;1268;67739;-76
2022/01/31 04:17:10;;;;;;;11.30;2.90;;;;;;;1.01;83.21;98359.92;105258;1268;73665;-75
2022/01/31 04:19:38;;;;;;;15.30;4.10;;;;;;;0.99;83.45;98355.85;105280;1268;61313;-77
2022/01/31 04:22:10;;;;;;;13.80;3.10;;;;;;;0.95;83.66;98355.29;105287;1268;61361;-76
2022/01/31 04:24:40;;;;;;;16.80;3.50;;;;;;;0.90;83.76;98353.75;105267;1268;75335;-76
2022/01/31 04:27:07;;;;;;;14.10;3.40;;;;;;;0.84;84.00;98352.57;105266;1268;69197;-76
2022/01/31 04:29:40;;;;;;;16.30;3.40;;;;;;;0.78;84.17;98350.52;105254;1268;72857;-76
2022/01/31 04:32:07;;;;;;;11.10;2.70;;;;;;;0.74;84.31;98349.25;105229;1268;61327;-76
2022/01/31 04:34:33;;;;;;;12.30;2.90;;;;;;;0.70;84.50;98342.96;105242;1268;61236;-76
2022/01/31 04:37:01;;;;;;;12.60;3.40;;;;;;;0.65;84.65;98340.52;105237;1268;76327;-76
2022/01/31 04:39:29;;;;;;;17.40;4.40;;;;;;;0.60;84.80;98333.89;105235;1268;69228;-75
2022/01/31 04:41:56;;;;;;;15.50;4.30;;;;;;;0.54;84.94;98334.10;105260;1266;73534;-76
2022/01/31 04:44:23;;;;;;;11.30;3.20;;;;;;;0.50;85.03;98333.91;104979;1268;61288;-76
2022/01/31 04:46:51;;;;;;;19.80;4.40;;;;;;;0.49;85.30;98340.42;105332;1268;61262;-78
2022/01/31 04:49:21;;;;;;;9.70;3.80;;;;;;;0.48;85.36;98340.63;105340;1268;75589;-77
2022/01/31 04:51:49;;;;;;;14.30;4.40;;;;;;;0.47;85.58;98336.64;105272;1268;69609;-76
2022/01/31 04:54:15;;;;;;;17.80;3.70;;;;;;;0.47;85.69;98333.33;105223;1268;74423;-76
2022/01/31 04:56:44;;;;;;;16.30;4.70;;;;;;;0.45;85.76;98333.22;105294;1268;61294;-76
2022/01/31 04:59:10;;;;;;;22.60;5.40;;;;;;;0.45;85.93;98328.85;105265;1268;61971;-77
2022/01/31 05:01:43;;;;;;;17.10;5.10;;;;;;;0.45;86.05;98327.11;105252;1268;76137;-76
2022/01/31 05:04:09;;;;;;;17.10;5.00;;;;;;;0.42;86.14;98326.86;105254;1268;69368;-76
2022/01/31 05:06:38;;;;;;;21.00;5.20;;;;;;;0.39;86.37;98321.02;105261;1268;74167;-76
2022/01/31 05:09:06;;;;;;;21.70;6.10;;;;;;;0.37;86.38;98315.13;105225;1268;61301;-77
2022/01/31 05:11:32;;;;;;;19.10;5.60;;;;;;;0.35;86.59;98309.13;105037;1274;61265;-77
2022/01/31 05:13:59;;;;;;;21.00;4.80;;;;;;;0.34;86.61;98302.70;105247;1268;76132;-76
2022/01/31 05:16:26;;;;;;;17.40;4.60;;;;;;;0.32;86.71;98297.15;105269;1268;70312;-76
2022/01/31 05:18:53;;;;;;;15.70;4.70;;;;;;;0.30;86.74;98291.64;105232;1268;72601;-76
2022/01/31 05:21:20;;;;;;;20.00;5.00;;;;;;;0.28;86.90;98284.89;105229;1268;61335;-77
2022/01/31 05:23:49;;;;;;;19.10;4.90;;;;;;;0.26;87.05;98278.68;105251;1268;61533;-76
2022/01/31 05:26:16;;;;;;;17.40;4.60;;;;;;;0.25;87.19;98278.05;105256;1268;74611;-77
2022/01/31 05:28:43;;;;;;;16.20;4.60;;;;;;;0.24;87.08;98270.40;105300;1268;69169;-76
2022/01/31 05:31:10;;;;;;;19.70;4.50;;;;;;;0.22;87.30;98268.73;105263;1268;61291;-76
2022/01/31 05:33:36;;;;;;;18.90;5.00;;;;;;;0.19;87.41;98261.98;105254;1268;62051;-77
2022/01/31 05:36:03;;;;;;;20.10;5.40;;;;;;;0.18;87.31;98265.02;105280;1268;61166;-76
2022/01/31 05:38:34;;;;;;;23.80;6.40;;;;;;;0.16;87.42;98256.55;105262;1268;76411;-77
2022/01/31 05:41:05;;;;;;;54.60;21.90;;;;;;;0.14;87.51;98255.73;105278;1268;70103;-77
2022/01/31 05:43:32;;;;;;;27.20;9.50;;;;;;;0.13;87.56;98258.92;105302;1268;73233;-76
2022/01/31 05:45:59;;;;;;;18.70;6.20;;;;;;;0.11;87.73;98251.65;105271;1268;61295;-75
2022/01/31 05:48:26;;;;;;;16.80;5.30;;;;;;;0.11;87.69;98248.14;105006;1269;61302;-75
2022/01/31 05:50:53;;;;;;;21.80;5.30;;;;;;;0.13;87.81;98242.32;105273;1268;74517;-76
2022/01/31 05:53:21;;;;;;;16.40;5.00;;;;;;;0.13;87.82;98243.36;105319;1268;69131;-77
2022/01/31 05:55:48;;;;;;;19.00;5.60;;;;;;;0.12;87.81;98243.91;105276;1268;74125;-75
2022/01/31 05:58:15;;;;;;;21.30;6.10;;;;;;;0.12;88.07;98246.73;105263;1268;61323;-75
2022/01/31 06:00:42;;;;;;;16.30;5.10;;;;;;;0.11;88.04;98238.55;105277;1268;61266;-76
2022/01/31 06:03:08;;;;;;;23.50;5.80;;;;;;;0.09;88.06;98235.28;105220;1268;76484;-77
2022/01/31 06:05:35;;;;;;;19.60;6.30;;;;;;;0.09;88.12;98234.77;105280;1268;69153;-77
2022/01/31 06:08:02;;;;;;;24.30;5.80;;;;;;;0.11;88.12;98237.88;105216;1268;74364;-76
2022/01/31 06:10:29;;;;;;;23.60;8.50;;;;;;;0.13;88.20;98237.96;105340;1268;61384;-77
2022/01/31 06:12:56;;;;;;;21.50;8.70;;;;;;;0.17;88.12;98234.48;104968;1269;61272;-76
2022/01/31 06:15:23;;;;;;;40.30;19.00;;;;;;;0.20;88.05;98233.68;105268;1268;75385;-76
2022/01/31 06:17:50;;;;;;;25.70;9.90;;;;;;;0.23;88.10;98227.63;105289;1268;70367;-78
2022/01/31 06:20:16;;;;;;;24.20;8.90;;;;;;;0.26;88.17;98227.18;105265;1268;73334;-76
2022/01/31 06:22:48;;;;;;;22.30;9.10;;;;;;;0.28;88.14;98217.66;105281;1268;61384;-76
2022/01/31 06:25:15;;;;;;;48.30;20.50;;;;;;;0.31;88.10;98216.48;105244;1268;61320;-76
2022/01/31 06:27:41;;;;;;;30.40;13.50;;;;;;;0.32;88.08;98208.08;105253;1268;75314;-76
2022/01/31 06:30:09;;;;;;;29.70;10.00;;;;;;;0.33;88.01;98205.24;105273;1268;67331;-77
2022/01/31 06:32:37;;;;;;;25.10;8.70;;;;;;;0.35;88.06;98205.14;105108;1269;72981;-78
2022/01/31 06:35:04;;;;;;;22.30;9.10;;;;;;;0.36;88.11;98196.55;105272;1268;61477;-76
2022/01/31 06:37:33;;;;;;;19.50;6.40;;;;;;;0.36;88.08;98195.14;105332;1268;61165;-78
2022/01/31 06:39:59;;;;;;;17.40;6.10;;;;;;;0.37;88.13;98195.47;105258;1269;75089;-77
2022/01/31 06:42:26;;;;;;;22.10;6.80;;;;;;;0.39;88.04;98192.23;105000;1268;61451;-77
2022/01/31 06:44:52;;;;;;;25.30;10.00;;;;;;;0.40;88.15;98190.42;105273;1268;74414;-77
2022/01/31 06:47:19;;;;;;;30.20;9.70;;;;;;;0.43;88.20;98184.21;105294;1268;61293;-78
2022/01/31 06:49:49;;;;;;;22.20;8.30;;;;;;;0.47;88.13;98184.25;105279;1268;61430;-76
2022/01/31 06:52:15;;;;;;;;;;;;;;;0.51;88.20;98177.44;105305;1268;75181;-77
2022/01/31 06:54:43;;;;;;;24.10;7.90;;;;;;;0.54;88.06;98176.45;105267;1268;61304;-77
2022/01/31 06:57:10;;;;;;;21.70;7.80;;;;;;;0.59;88.07;98179.23;105065;1268;71786;-77
2022/01/31 06:59:37;;;;;;;22.50;7.10;;;;;;;0.62;88.08;98172.96;105307;1268;61231;-77
2022/01/31 07:02:04;;;;;;;23.10;7.50;;;;;;;0.67;87.95;98168.77;105305;1268;61244;-76
2022/01/31 07:04:30;;;;;;;26.80;9.40;;;;;;;0.71;87.94;98164.25;105303;1268;75445;-77
2022/01/31 07:06:57;;;;;;;24.60;9.40;;;;;;;0.75;87.88;98156.73;105261;1268;61313;-77
2022/01/31 07:09:24;;;;;;;20.70;6.80;;;;;;;0.79;87.76;98151.52;105258;1268;61214;-82
2022/01/31 07:11:53;;;;;;;25.60;9.90;;;;;;;0.84;87.72;98152.88;105139;1268;61266;-76
2022/01/31 07:14:31;;;;;;;26.10;9.60;;;;;;;0.90;87.07;98159.62;105564;1268;61243;-82
2022/01/31 07:17:01;;;;;;;22.10;8.30;;;;;;;0.95;87.08;98157.32;105447;1268;76302;-79
2022/01/31 07:19:31;;;;;;;23.20;8.70;;;;;;;0.96;87.07;98154.80;105476;1268;68768;-83
2022/01/31 07:21:58;;;;;;;28.20;9.40;;;;;;;0.98;87.32;98152.47;105158;1268;74576;-81
2022/01/31 07:24:50;;;;;;;27.30;9.90;;;;;;;0.98;87.20;98144.58;105619;1268;61346;-76
2022/01/31 07:27:12;;;;;;;24.20;8.50;;;;;;;1.00;87.31;98134.36;105235;1268;62947;-76
2022/01/31 07:29:39;;;;;;;19.20;7.20;;;;;;;1.03;87.22;98127.08;105241;1269;75484;-79
2022/01/31 07:32:10;;;;;;;26.20;7.80;;;;;;;1.05;87.09;98130.46;105215;1269;69144;-76
2022/01/31 07:34:40;;;;;;;26.50;7.60;;;;;;;1.07;87.04;98123.20;105527;1268;73371;-77
2022/01/31 07:37:09;;;;;;;24.40;8.80;;;;;;;1.11;86.82;98123.23;105304;1268;61341;-78
2022/01/31 07:39:37;;;;;;;28.60;8.10;;;;;;;1.13;86.78;98113.88;105301;1268;61211;-78
2022/01/31 07:42:04;;;;;;;88.10;28.40;;;;;;;1.17;86.93;98110.39;105247;1268;75308;-77
2022/01/31 07:44:30;;;;;;;47.50;16.50;;;;;;;1.19;87.00;98109.07;105398;1268;69229;-78
2022/01/31 07:46:58;;;;;;;29.40;12.50;;;;;;;1.20;87.13;98105.15;105343;1268;73453;-77
2022/01/31 07:49:24;;;;;;;29.40;11.20;;;;;;;1.22;87.09;98105.64;105249;1268;61215;-76
2022/01/31 07:51:51;;;;;;;26.20;9.10;;;;;;;1.24;87.13;98100.48;105012;1268;61317;-77
2022/01/31 07:54:18;;;;;;;27.50;9.10;;;;;;;1.25;87.18;98102.66;105027;1269;76417;-76
2022/01/31 07:56:44;;;;;;;21.70;8.60;;;;;;;1.26;87.25;98101.59;105273;1268;69266;-77
2022/01/31 07:59:11;;;;;;;27.50;8.50;;;;;;;1.27;87.28;98095.77;105255;1268;74628;-77
2022/01/31 08:01:38;;;;;;;21.30;8.10;;;;;;;1.29;87.38;98093.59;105292;1268;61380;-78
2022/01/31 08:04:04;;;;;;;19.90;8.30;;;;;;;1.31;87.48;98090.17;105258;1268;61303;-80
2022/01/31 08:06:31;;;;;;;24.10;8.90;;;;;;;1.34;87.61;98085.67;105291;1268;61367;-77
2022/01/31 08:08:58;;;;;;;20.60;9.10;;;;;;;1.37;87.67;98078.19;104997;1269;70291;-78
2022/01/31 08:11:30;;;;;;;27.70;8.50;;;;;;;1.41;87.74;98072.77;105266;1269;74379;-78
2022/01/31 08:14:01;;;;;;;29.30;8.70;;;;;;;1.44;87.92;98066.14;105208;1268;61319;-77
2022/01/31 08:16:27;;;;;;;25.60;8.50;;;;;;;1.47;87.93;98057.05;105300;1268;61278;-77
2022/01/31 08:18:54;;;;;;;28.70;10.50;;;;;;;1.48;88.00;98056.84;105276;1268;75170;-77
2022/01/31 08:21:20;;;;;;;24.30;9.00;;;;;;;1.49;88.01;98052.95;105023;1274;70498;-78
2022/01/31 08:23:47;;;;;;;28.70;9.70;;;;;;;1.51;88.03;98043.59;105319;1268;72747;-77
2022/01/31 08:26:17;;;;;;;29.20;10.70;;;;;;;1.55;88.10;98043.60;105313;1268;61407;-77
2022/01/31 08:28:55;;;;;;;24.10;8.80;;;;;;;1.58;88.14;98041.16;105430;1268;61334;-76
2022/01/31 08:34:05;;;;;;;33.00;9.00;;;;;;;1.71;88.17;98041.46;105375;1268;68946;-76
2022/01/31 08:36:37;;;;;;;28.50;8.80;;;;;;;1.74;88.22;98031.83;105102;1268;72713;-77
2022/01/31 08:39:17;;;;;;;27.20;8.60;;;;;;;1.79;88.25;98022.88;105539;1268;61350;-77
2022/01/31 08:41:52;;;;;;;25.70;7.90;;;;;;;1.83;88.10;98017.27;105555;1268;62455;-77
2022/01/31 08:44:20;;;;;;;22.90;7.80;;;;;;;1.85;88.20;98013.13;105432;1268;75189;-76
2022/01/31 08:46:48;;;;;;;22.60;8.20;;;;;;;1.88;88.07;98017.54;105131;1268;69411;-77
2022/01/31 08:49:15;;;;;;;24.40;7.90;;;;;;;1.88;88.03;98018.22;105405;1268;73183;-78
2022/01/31 08:51:44;;;;;;;27.60;9.90;;;;;;;1.89;88.07;98021.84;105429;1268;61350;-78
2022/01/31 08:54:12;;;;;;;27.70;8.60;;;;;;;1.90;88.18;98023.75;105258;1271;62143;-77
2022/01/31 08:56:43;;;;;;;26.70;9.00;;;;;;;1.91;88.11;98017.89;105373;1274;76130;-78
2022/01/31 08:59:18;;;;;;;29.00;8.90;;;;;;;1.94;88.11;98013.58;105581;1268;69369;-77
2022/01/31 09:01:52;;;;;;;24.00;8.20;;;;;;;1.94;88.13;98003.41;105504;1268;73136;-77
2022/01/31 09:04:47;;;;;;;29.10;7.60;;;;;;;1.95;88.14;98000.92;105606;1271;61329;-76
2022/01/31 09:07:06;;;;;;;21.50;8.30;;;;;;;1.94;87.98;97990.97;105805;1271;61142;-75
2022/01/31 09:09:33;;;;;;;24.90;7.90;;;;;;;1.95;88.01;97982.37;105886;1271;76897;-79
2022/01/31 09:12:02;;;;;;;25.90;8.60;;;;;;;1.96;87.97;97984.19;105872;1271;70403;-75
2022/01/31 09:14:29;;;;;;;24.00;8.40;;;;;;;1.99;88.00;97978.12;106782;1271;74517;-74
2022/01/31 09:16:55;;;;;;;26.60;7.30;;;;;;;2.04;88.02;97977.89;105907;1271;61150;-74
2022/01/31 09:19:22;;;;;;;19.10;7.00;;;;;;;2.08;87.96;97973.10;107094;1271;60111;-74
2022/01/31 09:21:48;;;;;;;23.20;7.80;;;;;;;2.14;87.88;97968.83;108186;1270;60106;-75
2022/01/31 09:24:15;;;;;;;28.90;7.40;;;;;;;2.17;87.74;97968.98;107601;1270;69166;-75
2022/01/31 09:26:41;;;;;;;20.70;6.80;;;;;;;2.22;87.67;97968.23;107491;1271;74804;-74
2022/01/31 09:29:28;;;;;;;32.90;15.20;;;;;;;2.25;87.60;97965.46;107256;1271;61405;-74
2022/01/31 09:31:54;;;;;;;24.00;10.20;;;;;;;2.29;87.68;97956.33;105063;1274;61259;-73
2022/01/31 09:34:23;;;;;;;17.80;7.70;;;;;;;2.32;87.54;97950.58;105046;1274;61464;-75
2022/01/31 09:36:49;;;;;;;23.40;7.90;;;;;;;2.36;87.42;97940.55;105005;1274;69176;-76
2022/01/31 09:39:16;;;;;;;18.30;6.80;;;;;;;2.40;87.42;97935.61;105074;1274;74207;-75
2022/01/31 09:41:46;;;;;;;19.90;6.90;;;;;;;2.43;87.21;97934.94;105057;1274;61333;-74
2022/01/31 09:46:47;;;;;;;23.10;6.70;;;;;;;2.48;87.14;97933.30;104963;1274;76226;-74
2022/01/31 09:49:15;;;;;;;25.50;6.90;;;;;;;2.48;87.10;97930.63;104935;1274;69162;-74
2022/01/31 09:51:43;;;;;;;23.60;6.00;;;;;;;2.51;87.00;97927.88;104971;1274;74105;-74
2022/01/31 09:54:11;;;;;;;19.90;7.00;;;;;;;2.52;86.80;97920.62;104953;1274;61273;-74
2022/01/31 09:56:41;;;;;;;18.10;5.70;;;;;;;2.52;86.70;97917.10;104972;1274;61388;-74
2022/01/31 09:59:10;;;;;;;25.20;6.90;;;;;;;2.54;86.80;97917.91;105025;1274;74898;-75
2022/01/31 10:01:43;;;;;;;19.10;5.50;;;;;;;2.57;86.71;97912.28;105732;1274;70419;-76
2022/01/31 10:04:14;;;;;;;21.80;6.20;;;;;;;2.57;86.32;97913.50;105430;1272;73491;-75
2022/01/31 10:06:43;;;;;;;16.60;5.40;;;;;;;2.56;86.51;97906.55;105249;1271;61403;-74
2022/01/31 10:09:13;;;;;;;19.00;6.90;;;;;;;2.54;86.31;97909.10;105429;1271;61293;-72
2022/01/31 10:17:37;;;;;;;22.90;5.80;;;;;;;2.49;86.00;97892.89;105269;1271;74644;-74
2022/01/31 10:20:06;;;;;;;26.90;6.70;;;;;;;2.47;86.06;97880.92;105268;1271;61260;-74
2022/01/31 10:22:35;;;;;;;23.60;6.20;;;;;;;2.47;85.96;97881.94;105311;1272;62662;-75
2022/01/31 10:25:07;;;;;;;25.80;6.40;;;;;;;2.48;85.66;97878.95;105253;1272;75175;-74
2022/01/31 10:27:36;;;;;;;17.60;6.50;;;;;;;2.47;85.70;97878.44;105359;1271;69706;-74
2022/01/31 10:30:13;;;;;;;22.30;6.20;;;;;;;2.50;85.90;97878.15;104899;1272;74471;-75
2022/01/31 10:32:43;;;;;;;24.30;6.30;;;;;;;2.54;85.96;97870.02;105369;1271;61326;-75
2022/01/31 10:35:20;;;;;;;20.50;6.20;;;;;;;2.56;85.76;97864.62;105364;1271;61310;-75
2022/01/31 10:37:49;;;;;;;25.00;7.90;;;;;;;2.59;85.83;97850.11;105424;1270;75119;-76
2022/01/31 10:54:11;;;;;;;22.90;6.90;;;;;;;2.57;84.63;97831.13;105245;1270;70252;-74
2022/01/31 10:56:46;;;;;;;20.50;6.20;;;;;;;2.55;84.52;97830.67;105235;1271;74220;-74
2022/01/31 10:59:17;;;;;;;21.00;5.90;;;;;;;2.54;84.40;97833.17;105237;1271;61233;-74
2022/01/31 11:01:49;;;;;;;20.00;6.60;;;;;;;2.54;84.18;97828.62;105269;1271;61300;-76
2022/01/31 11:04:16;;;;;;;18.70;5.20;;;;;;;2.57;84.48;97827.10;105449;1271;76274;-74
2022/01/31 11:06:45;;;;;;;22.70;7.10;;;;;;;2.63;84.49;97821.33;105226;1271;70180;-74
2022/01/31 11:09:15;;;;;;;23.60;7.00;;;;;;;2.71;84.45;97825.09;105055;1271;74050;-75
2022/01/31 11:11:44;;;;;;;21.60;6.60;;;;;;;2.81;84.34;97821.23;105235;1271;61372;-74
2022/01/31 11:14:12;;;;;;;19.50;7.40;;;;;;;2.89;84.19;97815.73;105328;1271;61263;-74
2022/01/31 11:16:42;;;;;;;19.30;6.50;;;;;;;2.95;84.17;97815.37;105289;1271;75136;-76
2022/01/31 11:19:10;;;;;;;21.20;5.90;;;;;;;3.01;84.04;97810.48;105263;1271;70387;-76
2022/01/31 11:21:40;;;;;;;23.00;7.10;;;;;;;3.07;83.88;97808.23;105274;1271;73298;-75
2022/01/31 11:24:19;;;;;;;24.30;7.40;;;;;;;3.13;83.88;97810.37;105051;1274;61422;-75
2022/01/31 11:27:10;;;;;;;20.00;5.50;;;;;;;3.18;83.34;97803.40;105284;1271;61296;-75
2022/01/31 11:29:42;;;;;;;18.00;5.60;;;;;;;3.21;83.35;97799.36;105240;1271;74124;-75
2022/01/31 11:32:10;;;;;;;19.50;6.10;;;;;;;3.24;83.04;97799.74;105511;1271;69219;-75
2022/01/31 11:34:39;;;;;;;27.20;7.30;;;;;;;3.24;82.41;97800.61;105270;1271;73185;-75
2022/01/31 11:37:11;;;;;;;21.60;7.00;;;;;;;3.26;82.73;97805.77;105324;1271;61403;-75
2022/01/31 11:39:41;;;;;;;26.60;7.20;;;;;;;3.29;82.93;97805.39;105486;1271;62303;-75
2022/01/31 11:42:09;;;;;;;30.00;7.60;;;;;;;3.34;82.84;97794.77;105469;1270;75333;-75
2022/01/31 11:44:50;;;;;;;21.10;6.30;;;;;;;3.39;82.75;97793.27;105289;1271;69401;-74
2022/01/31 11:47:23;;;;;;;16.80;6.00;;;;;;;3.40;82.58;97791.45;105374;1271;73201;-75
2022/01/31 11:49:56;;;;;;;27.80;8.60;;;;;;;3.42;82.62;97786.92;105404;1271;61278;-73
2022/01/31 11:52:24;;;;;;;22.00;6.30;;;;;;;3.48;82.66;97787.45;105253;1271;61323;-75
2022/01/31 11:55:04;;;;;;;23.90;7.80;;;;;;;3.53;82.36;97787.73;105260;1271;75096;-74
2022/01/31 11:57:33;;;;;;;20.80;6.10;;;;;;;3.51;82.14;97783.24;105269;1271;69458;-75